• Join FlightAware (Why Join?)
  • Login
  • US Flag 
01:46AM EDT


 

Airport Tracker/Info


-or-


 

Live Flight TrackerFlight Track Log ✈ CPT8773 ✈ 11-Jun-2013 ✈ KCPR - KCOD

Flight Track Log - Related Links

Times and Time Zones

All times are in EDT time to prevent confusion due to time zone crossing. See the CPT8773 flight status page for this flight to view local times or setup timezone preferences in your user account.

Time Position Orientation Groundspeed Altitude Reporting Facility
EDT Latitude Longitude Course Direction KTS MPH feet Rate Location/Type
09:09AM 42.9631 -106.5200 307° West 116 133 7,100  Level Denver Center
09:10AM 42.9975 -106.5344 343° North 116 133 7,700 480 Climbing Denver Center
09:11AM 43.0297 -106.5458 346° North 123 142 8,100 480 Climbing Denver Center
09:12AM 43.0639 -106.5556 348° North 127 146 8,700 540 Climbing Denver Center
09:13AM 43.1516 -106.3880 295° West  Level FlightAware Approximate
09:13AM 43.1003 -106.5675 347° North 125 144 9,200  Level Denver Center
09:14AM 43.1703 -106.4399 307° West  Level FlightAware Approximate
09:14AM 43.1275 -106.5822 338° Northwest 119 137 9,500  Level Denver Center
09:15AM 43.1667 -106.5989 343° North 129 148 10,000 420 Climbing Denver Center
09:16AM 43.1997 -106.6128 343° North 131 151 10,400 360 Climbing Denver Center
09:17AM 43.2317 -106.6258 343° North 130 150 10,800 360 Climbing Denver Center
09:18AM 43.2708 -106.6461 339° North 130 150 11,200 360 Climbing Denver Center
09:19AM 43.3003 -106.6686 331° Northwest 127 146 11,600 360 Climbing Denver Center
09:20AM 43.3181 -106.7078 302° West 124 143 12,000 180 Climbing Denver Center
09:21AM 43.3442 -106.7544 308° West 136 157 12,000  Level Denver Center
09:22AM 43.3683 -106.7961 309° West 144 166 12,000  Level Denver Center
09:23AM 43.3950 -106.8489 305° West 149 171 12,000  Level Denver Center
09:24AM 43.4175 -106.8953 304° West 150 173 12,000  Level Salt Lake Center
09:25AM 43.4386 -106.9383 304° West 148 170 12,000 -60 Level Salt Lake Center
09:26AM 43.4650 -106.9933 303° West 151 174 11,900 -60 Descending Salt Lake Center
09:27AM 43.4894 -107.0375 307° West 152 175 11,900  Level Salt Lake Center
09:28AM 43.5136 -107.0817 307° West 152 175 11,900  Level Salt Lake Center
09:29AM 43.5400 -107.1356 304° West 151 174 11,900  Level Salt Lake Center
09:30AM 43.5656 -107.1797 309° West 153 176 11,900  Level Salt Lake Center
09:31AM 43.5903 -107.2242 308° West 152 175 11,900  Level Salt Lake Center
09:32AM 43.6181 -107.2775 306° West 152 175 11,900  Level Salt Lake Center
09:33AM 43.6422 -107.3228 306° West 152 175 11,900  Level Salt Lake Center
09:34AM 43.6653 -107.3681 305° West 151 174 11,900  Level Salt Lake Center
09:35AM 43.6922 -107.4208 305° West 150 173 11,900  Level Salt Lake Center
09:36AM 43.7167 -107.4669 306° West 153 176 11,900  Level Salt Lake Center
09:37AM 43.7453 -107.5181 308° West 152 175 11,900  Level Salt Lake Center
09:38AM 43.7692 -107.5636 306° West 152 175 11,900  Level Salt Lake Center
09:39AM 43.7928 -107.6083 306° West 150 173 11,900  Level Salt Lake Center
09:40AM 43.8200 -107.6603 306° West 149 171 11,900  Level Salt Lake Center
09:41AM 43.8442 -107.7069 306° West 153 176 11,900  Level Salt Lake Center
09:42AM 43.8722 -107.7589 307° West 152 175 11,900  Level Salt Lake Center
09:43AM 43.8956 -107.8033 306° West 149 171 11,900  Level Salt Lake Center
09:44AM 43.9200 -107.8497 306° West 152 175 11,900  Level Salt Lake Center
09:45AM 43.9461 -107.9014 305° West 148 170 11,900  Level Salt Lake Center
09:46AM 43.9700 -107.9481 305° West 151 174 11,900  Level Salt Lake Center
09:47AM 43.9942 -107.9919 307° West 150 173 11,900  Level Salt Lake Center
09:48AM 44.0217 -108.0458 305° West 151 174 12,000  Climbing Salt Lake Center
09:49AM 44.0456 -108.0914 306° West 152 175 12,000  Level Salt Lake Center
09:51AM 44.0725 -108.1442 305° West 151 174 12,000  Level Salt Lake Center
09:52AM 44.0964 -108.1903 306° West 152 175 12,000  Level Salt Lake Center
09:53AM 44.1197 -108.2378 304° West 153 176 12,000  Level Salt Lake Center
09:54AM 44.1489 -108.2911 307° West 154 177 12,000  Level Salt Lake Center
09:55AM 44.1725 -108.3381 305° West 155 178 12,000  Level Salt Lake Center
09:56AM 44.2006 -108.3936 305° West 156 180 12,000 -60 Level Salt Lake Center
09:57AM 44.2250 -108.4397 307° West 155 178 11,900 -240 Descending Salt Lake Center
09:58AM 44.2492 -108.4889 304° West 156 180 11,600 -420 Descending Salt Lake Center
09:59AM 44.2811 -108.5492 307° West 164 189 11,100 -420 Descending Salt Lake Center
10:00AM 44.3086 -108.6025 306° West 170 196 10,800 -360 Descending Salt Lake Center
10:01AM 44.3392 -108.6639 305° West 172 198 10,400 -420 Descending Salt Lake Center